Time;durP1;ratioP1;P1;durP2;ratioP2;P2;SDS_P1;SDS_P2;PMS_P1;PMS_P2;Temp;Humidity;BMP_temperature;BMP_pressure;BME280_temperature;BME280_humidity;BME280_pressure;Samples;Min_cycle;Max_cycle;Signal;HPM_P1;HPM_P2
2022/03/18 00:02:23;;;;;;;2.35;2.25;;;3.20;99.90;;;;;;5174113;28;20038;-74
2022/03/18 00:04:58;;;;;;;2.55;2.45;;;3.30;99.90;;;;;;5156780;28;20068;-75
2022/03/18 00:07:34;;;;;;;0.80;0.80;;;3.30;99.90;;;;;;5154093;28;20503;-74
2022/03/18 00:10:09;;;;;;;1.83;1.05;;;3.20;99.90;;;;;;5173266;28;20047;-74
2022/03/18 00:12:43;;;;;;;0.65;0.65;;;3.20;99.90;;;;;;5138505;28;20060;-74
2022/03/18 00:15:18;;;;;;;0.68;0.68;;;3.10;99.90;;;;;;5170566;28;20101;-74
2022/03/18 00:17:56;;;;;;;0.88;0.88;;;3.00;99.90;;;;;;5195572;28;20033;-74
2022/03/18 00:20:27;;;;;;;1.13;1.13;;;2.90;99.90;;;;;;5169410;28;20076;-76
2022/03/18 00:23:04;;;;;;;1.20;1.20;;;2.80;99.90;;;;;;5182849;28;20048;-75
2022/03/18 00:25:36;;;;;;;1.30;1.27;;;2.80;99.90;;;;;;5194199;28;20149;-74
2022/03/18 00:28:07;;;;;;;1.33;1.00;;;2.70;99.90;;;;;;5187325;28;20058;-75
2022/03/18 00:30:42;;;;;;;0.90;0.90;;;2.70;99.90;;;;;;5198137;28;20017;-75
2022/03/18 00:33:20;;;;;;;1.65;1.58;;;2.70;99.90;;;;;;5187864;28;20022;-74
2022/03/18 00:36:00;;;;;;;1.00;1.00;;;2.70;99.90;;;;;;5189230;28;20361;-74
2022/03/18 00:38:33;;;;;;;0.80;0.80;;;2.70;99.90;;;;;;5201192;28;20044;-74
2022/03/18 00:41:09;;;;;;;2.25;2.15;;;2.70;99.90;;;;;;5149261;28;20057;-73
2022/03/18 00:43:44;;;;;;;2.15;2.05;;;2.80;99.90;;;;;;5173536;28;20026;-74
2022/03/18 00:46:15;;;;;;;0.88;0.88;;;2.70;99.90;;;;;;5186908;28;20087;-74
2022/03/18 00:54:43;;;;;;;1.92;1.83;;;2.70;99.90;;;;;;5193772;28;20060;-75
2022/03/18 00:57:14;;;;;;;1.05;1.05;;;2.80;99.90;;;;;;5180077;28;20049;-74
2022/03/18 00:59:49;;;;;;;1.70;1.60;;;2.80;99.90;;;;;;5171475;28;20041;-74
2022/03/18 01:02:27;;;;;;;;;;;2.60;99.90;;;;;;5165202;28;20063;-74
2022/03/18 01:05:01;;;;;;;1.58;1.48;;;2.60;99.90;;;;;;5142490;28;19926;-73
2022/03/18 01:07:34;;;;;;;0.63;0.63;;;2.50;99.90;;;;;;5140696;28;20251;-75
2022/03/18 01:10:07;;;;;;;2.97;1.23;;;2.50;99.90;;;;;;5168645;28;20029;-74
2022/03/18 01:12:44;;;;;;;1.20;1.20;;;2.50;99.90;;;;;;5156925;28;20029;-74
2022/03/18 01:15:19;;;;;;;0.88;0.88;;;2.40;99.90;;;;;;5174254;28;20245;-74
2022/03/18 01:17:53;;;;;;;1.10;1.10;;;2.40;99.90;;;;;;5174767;28;20041;-74
2022/03/18 01:20:27;;;;;;;2.75;2.65;;;2.50;99.90;;;;;;5180797;28;20044;-73
2022/03/18 01:23:00;;;;;;;1.35;1.35;;;2.50;99.90;;;;;;5173464;28;20578;-74
2022/03/18 01:25:38;;;;;;;1.05;1.05;;;2.40;99.90;;;;;;5199977;28;20057;-74
2022/03/18 01:28:09;;;;;;;1.27;1.27;;;2.40;99.90;;;;;;5184947;28;20029;-75
2022/03/18 01:30:46;;;;;;;1.13;1.13;;;2.40;99.90;;;;;;5183643;28;20096;-74
2022/03/18 01:33:18;;;;;;;2.50;2.40;;;2.30;99.90;;;;;;5156666;28;20235;-73
2022/03/18 01:35:55;;;;;;;1.33;1.30;;;2.20;99.90;;;;;;5179729;28;20554;-74
2022/03/18 01:38:26;;;;;;;0.80;0.80;;;2.20;99.90;;;;;;5164386;28;20025;-75
2022/03/18 01:40:58;;;;;;;0.98;0.98;;;2.20;99.90;;;;;;5172387;28;20029;-74
2022/03/18 01:43:41;;;;;;;1.70;1.67;;;2.20;99.90;;;;;;5175510;28;20167;-74
2022/03/18 01:46:18;;;;;;;1.98;1.85;;;2.10;99.90;;;;;;5182377;28;20369;-74
2022/03/18 01:48:50;;;;;;;1.40;1.40;;;2.20;99.90;;;;;;5191268;28;20056;-74
2022/03/18 01:51:29;;;;;;;2.25;1.52;;;2.20;99.90;;;;;;5192263;28;20044;-74
2022/03/18 01:56:59;;;;;;;0.98;0.98;;;2.20;99.90;;;;;;5178247;28;20034;-74
2022/03/18 01:59:36;;;;;;;0.98;0.98;;;2.20;99.90;;;;;;5173153;28;20038;-74
2022/03/18 02:02:11;;;;;;;1.20;1.15;;;2.20;99.90;;;;;;5172904;28;20041;-74
2022/03/18 02:04:49;;;;;;;0.80;0.80;;;2.20;99.90;;;;;;5159199;28;20260;-75
2022/03/18 02:07:23;;;;;;;0.50;0.50;;;2.20;99.90;;;;;;5151512;28;20040;-75
2022/03/18 02:10:02;;;;;;;0.90;0.90;;;2.10;99.90;;;;;;5180365;28;20037;-74
2022/03/18 02:12:35;;;;;;;1.48;1.40;;;2.10;99.90;;;;;;5200601;28;20041;-74
2022/03/18 02:15:10;;;;;;;0.70;0.70;;;2.20;99.90;;;;;;5197051;28;20043;-74
2022/03/18 02:17:41;;;;;;;;;;;2.20;99.90;;;;;;5172288;28;20097;-73
2022/03/18 02:20:15;;;;;;;0.75;0.75;;;2.20;99.90;;;;;;5192069;28;19910;-74
2022/03/18 02:22:49;;;;;;;0.65;0.65;;;2.30;99.90;;;;;;5199764;28;20033;-74
2022/03/18 02:25:23;;;;;;;2.55;2.35;;;2.30;99.90;;;;;;5197839;28;20052;-74
2022/03/18 02:27:59;;;;;;;11.02;3.30;;;2.30;99.90;;;;;;5166169;28;20048;-74
2022/03/18 02:30:39;;;;;;;0.73;0.73;;;2.30;99.90;;;;;;5179808;28;20061;-74
2022/03/18 02:33:17;;;;;;;1.20;1.20;;;2.30;99.90;;;;;;5173747;28;20055;-74
2022/03/18 02:35:53;;;;;;;1.80;1.70;;;2.30;99.90;;;;;;5186174;28;20040;-74
2022/03/18 02:38:27;;;;;;;1.60;1.50;;;2.20;99.90;;;;;;5186536;28;20029;-74
2022/03/18 02:41:01;;;;;;;1.75;1.65;;;2.20;99.90;;;;;;5186281;28;20172;-74
2022/03/18 02:43:41;;;;;;;1.70;1.67;;;2.20;99.90;;;;;;5178389;28;20243;-75
2022/03/18 02:46:13;;;;;;;0.90;0.90;;;2.10;99.90;;;;;;5176254;28;20281;-73
2022/03/18 02:48:46;;;;;;;1.13;1.13;;;2.10;99.90;;;;;;5184488;28;20278;-75
2022/03/18 02:51:23;;;;;;;0.82;0.82;;;2.00;99.90;;;;;;5184417;28;20096;-74
2022/03/18 02:53:57;;;;;;;0.60;0.60;;;1.90;99.90;;;;;;5184132;28;20025;-74
2022/03/18 02:56:31;;;;;;;1.05;1.05;;;1.90;99.90;;;;;;5180082;28;20022;-74
2022/03/18 02:59:06;;;;;;;0.50;0.50;;;1.90;99.90;;;;;;5158343;28;20043;-74
2022/03/18 03:01:42;;;;;;;0.98;0.98;;;1.90;99.90;;;;;;5197025;28;20032;-75
2022/03/18 03:04:18;;;;;;;0.68;0.68;;;1.90;99.90;;;;;;5169404;28;20042;-74
2022/03/18 03:09:39;;;;;;;1.90;1.80;;;1.90;99.90;;;;;;5193783;28;20031;-75
2022/03/18 03:12:11;;;;;;;0.88;0.88;;;1.90;99.90;;;;;;5199017;28;20049;-74
2022/03/18 03:14:47;;;;;;;1.95;1.55;;;1.90;99.90;;;;;;5167436;28;20155;-75
2022/03/18 03:17:20;;;;;;;1.50;1.50;;;1.90;99.90;;;;;;5181483;28;20029;-73
2022/03/18 03:19:56;;;;;;;1.05;1.05;;;1.90;99.90;;;;;;5145628;28;20056;-75
2022/03/18 03:22:32;;;;;;;0.95;0.95;;;1.90;99.90;;;;;;5162290;28;20044;-74
2022/03/18 03:25:08;;;;;;;1.77;1.25;;;1.90;99.90;;;;;;5157092;28;20058;-74
2022/03/18 03:27:45;;;;;;;0.80;0.80;;;1.90;99.90;;;;;;5183651;28;20029;-75
2022/03/18 03:30:17;;;;;;;0.85;0.85;;;1.90;99.90;;;;;;5184404;28;20266;-75
2022/03/18 03:32:51;;;;;;;1.88;1.77;;;1.80;99.90;;;;;;5175540;28;20045;-75
2022/03/18 03:35:25;;;;;;;1.65;1.55;;;1.90;99.90;;;;;;5174197;28;20512;-75
2022/03/18 03:38:02;;;;;;;1.15;1.15;;;1.90;99.90;;;;;;5170738;28;20373;-73
2022/03/18 03:40:33;;;;;;;1.17;1.17;;;1.90;99.90;;;;;;5161863;28;20025;-73
2022/03/18 03:43:06;;;;;;;1.98;1.88;;;2.00;99.90;;;;;;5169752;28;20033;-74
2022/03/18 03:45:40;;;;;;;1.10;1.10;;;2.00;99.90;;;;;;5173118;28;20043;-74
2022/03/18 03:48:12;;;;;;;;;;;2.00;99.90;;;;;;5194793;28;20052;-73
2022/03/18 03:50:43;;;;;;;0.68;0.68;;;2.00;99.90;;;;;;5167518;28;19924;-76
2022/03/18 03:53:15;;;;;;;1.25;1.25;;;2.00;99.90;;;;;;5193939;28;20330;-74
2022/03/18 03:55:50;;;;;;;0.85;0.85;;;2.10;99.90;;;;;;5177770;28;20232;-73
2022/03/18 03:58:27;;;;;;;2.78;2.67;;;2.20;99.90;;;;;;5164420;28;20030;-74
2022/03/18 04:01:01;;;;;;;1.02;1.02;;;2.20;99.90;;;;;;5198402;28;20053;-75
2022/03/18 04:03:32;;;;;;;1.50;1.40;;;2.20;99.90;;;;;;5172873;28;20120;-75
2022/03/18 04:06:09;;;;;;;1.50;1.50;;;2.30;99.90;;;;;;5177055;28;20044;-75
2022/03/18 04:08:43;;;;;;;1.27;1.27;;;2.20;99.90;;;;;;5170326;28;20064;-74
2022/03/18 04:11:21;;;;;;;1.08;1.08;;;2.10;99.90;;;;;;5186728;28;20353;-75
2022/03/18 04:13:55;;;;;;;1.15;1.15;;;2.10;99.90;;;;;;5172608;28;20060;-76
2022/03/18 04:16:26;;;;;;;0.65;0.65;;;2.10;99.90;;;;;;5191657;28;20018;-74
2022/03/18 04:18:58;;;;;;;1.40;1.30;;;2.10;99.90;;;;;;5182592;28;20029;-73
2022/03/18 04:21:33;;;;;;;0.82;0.82;;;2.10;99.90;;;;;;5198727;28;20043;-74
2022/03/18 04:24:07;;;;;;;0.88;0.88;;;2.10;99.90;;;;;;5171691;28;20026;-75
2022/03/18 04:26:41;;;;;;;1.05;1.05;;;2.10;99.90;;;;;;5188041;28;20576;-76
2022/03/18 04:29:15;;;;;;;1.25;1.25;;;2.10;99.90;;;;;;5188019;28;20038;-75
2022/03/18 04:31:52;;;;;;;1.00;1.00;;;2.00;99.90;;;;;;5169797;28;20357;-76
2022/03/18 04:34:23;;;;;;;2.25;1.83;;;2.10;99.90;;;;;;5190817;28;20029;-77
2022/03/18 04:36:57;;;;;;;2.00;1.90;;;2.00;99.90;;;;;;5160411;28;20060;-74
2022/03/18 04:39:29;;;;;;;2.50;1.95;;;2.00;99.90;;;;;;5201612;28;20030;-76
2022/03/18 04:42:00;;;;;;;4.28;4.05;;;2.00;99.90;;;;;;5196328;28;20043;-75
2022/03/18 04:44:32;;;;;;;1.00;1.00;;;2.10;99.90;;;;;;5198338;28;20048;-75
2022/03/18 04:47:06;;;;;;;1.35;1.35;;;2.10;99.90;;;;;;5172053;28;20046;-74
2022/03/18 04:49:40;;;;;;;2.70;2.50;;;2.10;99.90;;;;;;5190779;28;20021;-74
2022/03/18 04:52:14;;;;;;;1.23;1.23;;;2.10;99.90;;;;;;5200836;28;20112;-75
2022/03/18 04:54:46;;;;;;;1.13;1.13;;;2.10;99.90;;;;;;5186317;28;20033;-75
2022/03/18 04:57:23;;;;;;;0.80;0.80;;;2.00;99.90;;;;;;5184878;28;20251;-74
2022/03/18 04:59:56;;;;;;;0.82;0.82;;;1.90;99.90;;;;;;5180841;28;20026;-75
2022/03/18 05:02:30;;;;;;;1.52;1.52;;;1.90;99.90;;;;;;5163659;28;20050;-74
2022/03/18 05:05:17;;;;;;;1.00;1.00;;;1.90;99.90;;;;;;5132739;28;20054;-74
2022/03/18 05:07:54;;;;;;;1.48;1.48;;;1.80;99.90;;;;;;5156512;28;20041;-74
2022/03/18 05:10:31;;;;;;;1.92;1.83;;;1.90;99.90;;;;;;5190382;28;20029;-74
2022/03/18 05:13:03;;;;;;;2.15;2.08;;;2.00;99.90;;;;;;5181732;28;20013;-75
2022/03/18 05:15:48;;;;;;;1.05;1.05;;;1.90;99.90;;;;;;5166593;28;20026;-73
2022/03/18 05:18:22;;;;;;;2.13;2.03;;;2.00;99.90;;;;;;5179070;28;20033;-76
2022/03/18 05:20:56;;;;;;;0.82;0.82;;;2.10;99.90;;;;;;5164159;28;20051;-75
2022/03/18 05:23:28;;;;;;;;;;;2.10;99.90;;;;;;5198185;28;20033;-75
2022/03/18 05:25:59;;;;;;;2.35;2.20;;;2.10;99.90;;;;;;5184488;28;19913;-73
2022/03/18 05:28:31;;;;;;;0.90;0.90;;;2.00;99.90;;;;;;5181515;28;20027;-75
2022/03/18 05:31:03;;;;;;;1.20;1.20;;;2.00;99.90;;;;;;5171975;28;20056;-75
2022/03/18 05:33:37;;;;;;;1.80;1.70;;;2.10;99.90;;;;;;5180725;28;20048;-75
2022/03/18 05:36:09;;;;;;;1.30;1.30;;;2.10;99.90;;;;;;5193902;28;20307;-74
2022/03/18 05:38:43;;;;;;;1.20;1.20;;;2.10;99.90;;;;;;5191961;28;20354;-74
2022/03/18 05:41:17;;;;;;;1.15;0.98;;;2.20;99.90;;;;;;5187893;28;20227;-75
2022/03/18 05:43:51;;;;;;;1.65;1.58;;;2.20;99.90;;;;;;5163099;28;20285;-74
2022/03/18 05:46:22;;;;;;;2.40;1.85;;;2.20;99.90;;;;;;5186367;28;20033;-73
2022/03/18 05:48:54;;;;;;;1.10;1.10;;;2.30;99.90;;;;;;5150725;28;20304;-73
2022/03/18 05:51:27;;;;;;;1.60;1.50;;;2.30;99.90;;;;;;5161862;28;20034;-75
2022/03/18 05:54:04;;;;;;;1.23;1.23;;;2.30;99.90;;;;;;5190422;28;20041;-76
2022/03/18 05:56:54;;;;;;;0.57;0.57;;;2.40;99.90;;;;;;5173796;28;20582;-73
2022/03/18 05:59:37;;;;;;;1.13;1.13;;;2.50;99.90;;;;;;5195122;28;20056;-76
2022/03/18 06:02:14;;;;;;;1.63;1.52;;;2.70;99.90;;;;;;5161250;28;20384;-75
2022/03/18 06:04:46;;;;;;;1.30;1.30;;;2.70;99.90;;;;;;5166591;28;20058;-74
2022/03/18 06:07:18;;;;;;;0.77;0.77;;;2.80;99.90;;;;;;5131220;28;20047;-74
2022/03/18 06:12:39;;;;;;;2.20;2.08;;;3.00;99.90;;;;;;5175639;28;20038;-75
2022/03/18 06:15:14;;;;;;;1.73;1.63;;;3.10;99.90;;;;;;5139303;28;20235;-74
2022/03/18 06:17:49;;;;;;;1.42;1.42;;;3.30;99.90;;;;;;5152191;28;20242;-75
2022/03/18 06:20:22;;;;;;;0.70;0.70;;;3.40;99.90;;;;;;5146212;28;20694;-78
2022/03/18 06:22:56;;;;;;;0.95;0.95;;;3.40;99.90;;;;;;5172010;28;20036;-76
2022/03/18 06:25:27;;;;;;;1.13;1.13;;;3.50;99.90;;;;;;5156761;28;20053;-76
2022/03/18 06:27:59;;;;;;;1.13;1.13;;;3.60;99.90;;;;;;5166886;28;20034;-78
2022/03/18 06:30:36;;;;;;;1.05;1.02;;;3.80;99.90;;;;;;5163556;28;20207;-76
2022/03/18 06:33:07;;;;;;;1.25;1.25;;;3.90;99.90;;;;;;5150992;28;20030;-77
2022/03/18 06:35:48;;;;;;;2.50;2.40;;;4.00;99.90;;;;;;5154751;28;20339;-74
2022/03/18 06:38:20;;;;;;;2.88;2.78;;;4.10;99.90;;;;;;5138947;28;20026;-76
2022/03/18 06:40:51;;;;;;;3.15;1.83;;;4.20;99.90;;;;;;5161971;28;20041;-75
2022/03/18 06:43:23;;;;;;;1.52;1.50;;;4.30;99.90;;;;;;5162391;28;20034;-75
2022/03/18 06:45:57;;;;;;;1.10;1.10;;;4.40;99.90;;;;;;5167034;28;20026;-76
2022/03/18 06:48:31;;;;;;;1.23;1.23;;;4.50;99.90;;;;;;5170876;28;20056;-76
2022/03/18 06:51:08;;;;;;;1.40;1.30;;;4.60;99.90;;;;;;5168530;28;20037;-76
2022/03/18 06:53:40;;;;;;;1.02;1.02;;;4.70;99.90;;;;;;5162454;28;20295;-75
2022/03/18 06:56:14;;;;;;;1.00;1.00;;;4.80;99.90;;;;;;5181135;28;20029;-75
2022/03/18 06:58:48;;;;;;;1.63;1.52;;;4.90;99.90;;;;;;5172583;28;20029;-75
2022/03/18 07:01:29;;;;;;;2.05;1.95;;;5.00;99.90;;;;;;5171994;28;20026;-76
2022/03/18 07:04:02;;;;;;;1.00;1.00;;;5.00;99.90;;;;;;5152068;28;20046;-76
2022/03/18 07:06:40;;;;;;;2.83;2.72;;;5.30;99.90;;;;;;5171648;28;20228;-75
2022/03/18 07:09:14;;;;;;;6.63;1.70;;;5.30;99.90;;;;;;5176278;28;20024;-76
2022/03/18 07:11:51;;;;;;;1.30;1.30;;;5.30;99.90;;;;;;5175946;28;20018;-77
2022/03/18 07:14:28;;;;;;;1.85;1.77;;;5.50;99.90;;;;;;5169834;28;20796;-76
2022/03/18 07:19:55;;;;;;;2.55;2.45;;;5.80;99.90;;;;;;5188068;28;20080;-76
2022/03/18 07:22:28;;;;;;;1.33;1.33;;;6.00;99.90;;;;;;5184828;28;20033;-78
2022/03/18 07:24:59;;;;;;;2.58;2.38;;;6.10;99.90;;;;;;5189770;28;20045;-77
2022/03/18 07:27:36;;;;;;;1.50;1.50;;;6.30;99.90;;;;;;5188104;28;20034;-76
2022/03/18 07:30:11;;;;;;;2.17;2.08;;;6.50;99.90;;;;;;5174944;28;20048;-75
2022/03/18 07:32:46;;;;;;;;;;;6.60;99.90;;;;;;5180999;28;20250;-76
2022/03/18 07:35:23;;;;;;;;;;;6.70;99.90;;;;;;5194848;28;20135;-78
2022/03/18 07:37:55;;;;;;;1.23;1.23;;;6.90;99.90;;;;;;5202156;28;20230;-76
2022/03/18 07:40:32;;;;;;;1.15;1.15;;;7.00;99.90;;;;;;5197379;28;20033;-75
2022/03/18 07:43:05;;;;;;;2.75;2.63;;;7.20;99.90;;;;;;5172873;28;20052;-76
2022/03/18 07:45:40;;;;;;;1.30;1.30;;;7.30;99.90;;;;;;5199424;28;20047;-78
2022/03/18 07:48:12;;;;;;;1.35;1.25;;;7.40;99.90;;;;;;5194132;28;20275;-76
2022/03/18 07:50:43;;;;;;;2.00;1.90;;;7.50;99.90;;;;;;5182542;28;20040;-77
2022/03/18 07:53:19;;;;;;;2.70;2.60;;;7.80;99.90;;;;;;5185249;28;20476;-76
2022/03/18 07:55:53;;;;;;;2.20;2.10;;;7.80;99.90;;;;;;5168314;28;20037;-76
2022/03/18 07:58:24;;;;;;;1.58;1.48;;;8.00;99.90;;;;;;5193590;28;20483;-77
2022/03/18 08:01:00;;;;;;;4.97;4.57;;;8.10;99.90;;;;;;5193733;28;20041;-75
2022/03/18 08:03:34;;;;;;;3.22;3.03;;;8.10;99.90;;;;;;5163834;28;20250;-76
2022/03/18 08:06:06;;;;;;;1.95;1.85;;;8.30;99.90;;;;;;5173117;28;20085;-76
2022/03/18 08:08:38;;;;;;;2.15;2.05;;;8.20;99.90;;;;;;5174499;28;20029;-75
2022/03/18 08:11:10;;;;;;;4.10;3.25;;;8.40;99.90;;;;;;5191992;28;20421;-76
2022/03/18 08:13:42;;;;;;;2.03;1.92;;;8.40;99.90;;;;;;5175521;28;20037;-76
2022/03/18 08:16:16;;;;;;;1.63;1.63;;;7.80;99.90;;;;;;5196247;28;20027;-77
2022/03/18 08:18:51;;;;;;;0.98;0.98;;;8.00;99.90;;;;;;5178417;28;20033;-76
2022/03/18 08:21:23;;;;;;;;;;;8.10;99.90;;;;;;5161664;28;20030;-77
2022/03/18 08:23:59;;;;;;;1.88;1.77;;;8.10;99.90;;;;;;5163467;28;19920;-77
2022/03/18 08:26:36;;;;;;;1.23;1.23;;;8.50;99.90;;;;;;5194597;28;20025;-75
2022/03/18 08:29:07;;;;;;;1.75;1.67;;;8.70;99.90;;;;;;5196863;28;20013;-76
2022/03/18 08:31:39;;;;;;;2.33;2.22;;;8.80;99.90;;;;;;5194279;28;20026;-78
2022/03/18 08:34:10;;;;;;;2.63;2.53;;;9.30;99.90;;;;;;5192050;28;20029;-77
2022/03/18 08:36:45;;;;;;;4.65;4.03;;;8.90;99.90;;;;;;5177961;28;20755;-77
2022/03/18 08:39:21;;;;;;;1.55;1.55;;;9.20;99.90;;;;;;5170898;28;20033;-75
2022/03/18 08:41:55;;;;;;;2.67;2.47;;;9.30;99.90;;;;;;5160738;28;20674;-77
2022/03/18 08:44:29;;;;;;;3.17;2.97;;;9.40;99.90;;;;;;5191560;28;20520;-75
2022/03/18 08:47:01;;;;;;;2.72;2.63;;;9.70;99.90;;;;;;5164710;28;20573;-76
2022/03/18 08:49:35;;;;;;;3.33;2.25;;;10.00;99.90;;;;;;5195978;28;20040;-76
2022/03/18 08:52:07;;;;;;;2.70;2.60;;;10.00;99.90;;;;;;5176908;28;20017;-77
2022/03/18 08:54:41;;;;;;;5.05;4.75;;;9.60;99.90;;;;;;5192410;28;20039;-78
2022/03/18 08:57:16;;;;;;;;;;;9.60;99.90;;;;;;5162207;28;20046;-75
2022/03/18 08:59:52;;;;;;;1.27;1.27;;;10.00;99.90;;;;;;5166981;28;19913;-76
2022/03/18 09:02:24;;;;;;;1.98;1.90;;;10.00;99.90;;;;;;5180326;28;20033;-76
2022/03/18 09:04:58;;;;;;;2.67;2.47;;;10.40;99.90;;;;;;5166094;28;20044;-77
2022/03/18 09:07:35;;;;;;;5.18;3.20;;;10.70;99.90;;;;;;5193967;28;20025;-76
2022/03/18 09:10:12;;;;;;;2.80;2.67;;;11.00;99.90;;;;;;5175365;28;20374;-76
2022/03/18 09:12:49;;;;;;;1.38;1.38;;;10.60;99.90;;;;;;5186844;28;20477;-77
2022/03/18 09:15:20;;;;;;;1.80;1.75;;;10.50;99.90;;;;;;5169429;28;20021;-76
2022/03/18 09:17:52;;;;;;;3.97;3.47;;;11.10;99.90;;;;;;5186591;28;20033;-76
2022/03/18 09:20:24;;;;;;;1.58;1.48;;;11.60;99.90;;;;;;5164150;28;20052;-75
2022/03/18 09:22:56;;;;;;;2.10;1.98;;;11.30;99.90;;;;;;5184602;28;20021;-76
2022/03/18 09:25:30;;;;;;;2.28;2.17;;;11.60;99.90;;;;;;5182742;28;20263;-76
2022/03/18 09:28:04;;;;;;;3.28;3.08;;;11.90;99.90;;;;;;5187043;28;20034;-77
2022/03/18 09:30:44;;;;;;;2.38;2.28;;;11.70;99.90;;;;;;5179828;28;20026;-76
2022/03/18 09:33:18;;;;;;;3.22;2.97;;;11.60;99.90;;;;;;5196552;28;20037;-76
2022/03/18 09:35:49;;;;;;;2.47;2.38;;;11.50;99.90;;;;;;5190306;28;20014;-77
2022/03/18 09:38:24;;;;;;;1.60;1.55;;;11.80;99.90;;;;;;5200518;28;20318;-77
2022/03/18 09:41:05;;;;;;;1.85;1.75;;;11.20;99.90;;;;;;5190507;28;20021;-76
2022/03/18 09:43:41;;;;;;;2.40;2.20;;;11.80;99.90;;;;;;5177623;28;20032;-76
2022/03/18 09:46:19;;;;;;;1.30;1.30;;;12.40;99.90;;;;;;5200187;28;20045;-75
2022/03/18 09:48:53;;;;;;;1.50;1.50;;;12.10;99.90;;;;;;5182382;28;20218;-76
2022/03/18 09:51:30;;;;;;;2.03;1.95;;;11.70;99.90;;;;;;5168380;28;20037;-77
2022/03/18 09:54:06;;;;;;;4.07;3.78;;;12.10;99.90;;;;;;5179811;28;20036;-76
2022/03/18 09:56:53;;;;;;;4.05;3.67;;;12.00;99.90;;;;;;5188957;28;20029;-76
2022/03/18 09:59:27;;;;;;;2.08;1.98;;;12.10;99.90;;;;;;5184505;28;20033;-77
2022/03/18 10:02:24;;;;;;;0.93;0.93;;;12.40;99.90;;;;;;5198333;28;20041;-77
2022/03/18 10:05:02;;;;;;;2.08;1.98;;;13.00;99.90;;;;;;5182213;28;20064;-76
2022/03/18 10:07:38;;;;;;;1.95;1.85;;;13.70;99.90;;;;;;5170397;28;20026;-78
2022/03/18 10:10:17;;;;;;;3.33;3.13;;;13.80;99.90;;;;;;5195181;28;20035;-77
2022/03/18 10:12:52;;;;;;;1.92;1.83;;;13.60;99.90;;;;;;5203925;28;20039;-78
2022/03/18 10:15:28;;;;;;;2.72;2.53;;;14.00;99.90;;;;;;5179091;28;20036;-76
2022/03/18 10:18:06;;;;;;;1.83;1.75;;;14.40;99.90;;;;;;5182495;28;20044;-77
2022/03/18 10:20:48;;;;;;;2.88;2.72;;;14.30;99.90;;;;;;5166475;28;20211;-77
2022/03/18 10:23:23;;;;;;;1.63;1.60;;;13.50;99.90;;;;;;5176302;28;20052;-76
2022/03/18 10:25:58;;;;;;;1.75;1.73;;;13.80;99.90;;;;;;5190505;28;20038;-75
2022/03/18 10:28:44;;;;;;;1.25;1.25;;;14.00;99.90;;;;;;5189492;28;20303;-75
2022/03/18 10:31:26;;;;;;;4.22;3.83;;;14.00;99.90;;;;;;5158583;28;20323;-77
2022/03/18 10:37:05;;;;;;;2.45;2.35;;;13.90;99.90;;;;;;5199814;28;20044;-77
2022/03/18 10:39:50;;;;;;;2.22;2.13;;;14.00;99.90;;;;;;5186433;28;20025;-76
2022/03/18 10:42:24;;;;;;;3.22;3.00;;;14.40;99.90;;;;;;5165929;28;20042;-77
2022/03/18 10:45:01;;;;;;;2.45;2.35;;;14.20;99.90;;;;;;5183149;28;20323;-75
2022/03/18 10:47:46;;;;;;;1.85;1.80;;;12.80;99.90;;;;;;5169445;28;20037;-77
2022/03/18 10:50:29;;;;;;;3.05;2.83;;;13.40;99.90;;;;;;5205208;28;20060;-77
2022/03/18 10:53:07;;;;;;;2.88;2.55;;;14.30;99.90;;;;;;5189182;28;20047;-78
2022/03/18 10:55:44;;;;;;;3.25;2.95;;;14.40;99.90;;;;;;5166278;28;20037;-77
2022/03/18 10:58:22;;;;;;;2.33;2.22;;;14.70;99.90;;;;;;5177342;28;20028;-77
2022/03/18 11:00:59;;;;;;;2.25;2.15;;;14.10;99.90;;;;;;5190377;28;20511;-77
2022/03/18 11:03:36;;;;;;;2.38;2.28;;;13.80;99.90;;;;;;5184966;28;20059;-77
2022/03/18 11:06:08;;;;;;;2.60;2.50;;;14.60;99.90;;;;;;5157867;28;20054;-77
2022/03/18 11:08:50;;;;;;;2.60;2.50;;;14.70;99.90;;;;;;5180429;28;20032;-76
2022/03/18 11:11:24;;;;;;;1.27;1.27;;;15.10;99.90;;;;;;5191413;28;20017;-76
2022/03/18 11:14:10;;;;;;;2.03;1.92;;;14.70;99.90;;;;;;5190781;28;20039;-76
2022/03/18 11:16:47;;;;;;;1.75;1.67;;;15.60;99.90;;;;;;5160189;28;20038;-77
2022/03/18 11:19:20;;;;;;;2.50;2.38;;;16.20;99.90;;;;;;5175421;28;20716;-76
2022/03/18 11:22:00;;;;;;;2.25;2.15;;;16.40;99.90;;;;;;5169443;28;20372;-76
2022/03/18 11:24:32;;;;;;;3.55;2.80;;;15.30;99.90;;;;;;5172191;28;20022;-77
2022/03/18 11:27:11;;;;;;;3.92;3.65;;;16.00;99.90;;;;;;5172947;28;20037;-77
2022/03/18 11:29:43;;;;;;;1.10;1.10;;;15.70;99.90;;;;;;5172870;28;20052;-76
2022/03/18 11:32:16;;;;;;;3.85;3.60;;;14.70;99.90;;;;;;5188363;28;20044;-79
2022/03/18 11:35:02;;;;;;;1.92;1.83;;;14.80;99.90;;;;;;5190908;28;20037;-76
2022/03/18 11:37:40;;;;;;;2.35;2.25;;;15.40;99.90;;;;;;5170643;28;20036;-76
2022/03/18 11:40:27;;;;;;;1.52;1.48;;;15.60;99.90;;;;;;5164645;28;20047;-77
2022/03/18 11:43:32;;;;;;;3.45;3.25;;;16.60;99.90;;;;;;5184291;28;20034;-76
2022/03/18 11:46:27;;;;;;;1.95;1.88;;;16.80;99.90;;;;;;5186520;28;20216;-77
2022/03/18 11:49:11;;;;;;;3.28;3.08;;;16.30;99.90;;;;;;5175638;28;20030;-77
2022/03/18 11:52:00;;;;;;;2.37;2.27;;;16.40;99.90;;;;;;5214788;28;20018;-78
2022/03/18 11:55:13;;;;;;;7.10;3.78;;;17.40;99.90;;;;;;5177332;28;20707;-76
2022/03/18 11:57:46;;;;;;;2.47;2.38;;;18.40;99.90;;;;;;5190845;28;20028;-76
2022/03/18 12:00:32;;;;;;;2.20;2.10;;;19.70;99.90;;;;;;5171945;28;20624;-78
2022/03/18 12:03:18;;;;;;;3.63;2.85;;;20.40;99.90;;;;;;5198222;28;20037;-77
2022/03/18 12:05:58;;;;;;;3.28;3.08;;;20.20;99.90;;;;;;5166303;28;20050;-77
2022/03/18 12:08:51;;;;;;;3.15;2.95;;;18.50;99.90;;;;;;5168453;28;20051;-77
2022/03/18 12:11:32;;;;;;;2.05;1.75;;;18.10;99.90;;;;;;5199941;28;20033;-76
2022/03/18 12:14:10;;;;;;;1.17;1.17;;;19.00;99.90;;;;;;5196308;28;20038;-78
2022/03/18 12:16:45;;;;;;;2.50;2.33;;;19.10;99.90;;;;;;5183316;28;20031;-77
2022/03/18 12:19:22;;;;;;;1.80;1.70;;;18.70;99.90;;;;;;5176029;28;20050;-76
2022/03/18 12:22:02;;;;;;;1.27;1.27;;;18.40;99.90;;;;;;5200936;28;20356;-77
2022/03/18 12:24:34;;;;;;;0.77;0.77;;;18.10;99.90;;;;;;5181922;28;20041;-76
2022/03/18 12:27:08;;;;;;;1.67;1.60;;;19.20;99.90;;;;;;5194239;28;20037;-77
2022/03/18 12:29:42;;;;;;;1.60;1.58;;;18.40;99.90;;;;;;5203053;28;20029;-75
2022/03/18 12:32:23;;;;;;;2.95;2.75;;;17.30;99.90;;;;;;5177702;28;20029;-76
2022/03/18 12:34:57;;;;;;;2.50;2.40;;;17.40;99.90;;;;;;5190387;28;20357;-75
2022/03/18 12:37:32;;;;;;;3.72;2.58;;;17.10;99.90;;;;;;5186807;28;20035;-76
2022/03/18 12:40:15;;;;;;;1.85;1.75;;;17.70;99.90;;;;;;5202320;28;20037;-77
2022/03/18 12:42:56;;;;;;;3.60;3.30;;;17.60;99.90;;;;;;5169157;28;20266;-78
2022/03/18 12:45:38;;;;;;;1.92;1.77;;;17.50;99.90;;;;;;5164221;28;20315;-76
2022/03/18 12:48:27;;;;;;;2.05;1.95;;;18.40;99.90;;;;;;5192880;28;20072;-76
2022/03/18 12:50:59;;;;;;;2.15;2.05;;;19.00;99.90;;;;;;5187142;28;20576;-77
2022/03/18 12:53:37;;;;;;;1.88;1.77;;;18.40;99.90;;;;;;5212154;28;20021;-78
2022/03/18 12:56:16;;;;;;;2.65;2.55;;;19.20;99.90;;;;;;5190702;28;20028;-77
2022/03/18 12:58:47;;;;;;;2.95;2.75;;;19.00;99.90;;;;;;5162249;28;20042;-78
2022/03/18 13:01:22;;;;;;;3.20;2.90;;;20.00;99.90;;;;;;5178092;28;20037;-77
2022/03/18 13:04:02;;;;;;;3.28;2.28;;;21.00;99.90;;;;;;5153805;28;20038;-77
2022/03/18 13:06:37;;;;;;;2.63;2.50;;;21.60;99.90;;;;;;5187052;28;20104;-75
2022/03/18 13:09:13;;;;;;;1.30;1.20;;;21.40;99.90;;;;;;5190869;28;20044;-77
2022/03/18 13:11:45;;;;;;;0.80;0.80;;;22.50;99.90;;;;;;5177863;28;20045;-78
2022/03/18 13:14:38;;;;;;;1.77;1.42;;;23.30;99.90;;;;;;5191985;28;20033;-76
2022/03/18 13:17:27;;;;;;;1.13;1.13;;;21.50;99.90;;;;;;5190468;28;20025;-76
2022/03/18 13:20:01;;;;;;;1.10;1.10;;;19.50;99.90;;;;;;5196697;28;20041;-77
2022/03/18 13:22:44;;;;;;;2.35;2.25;;;19.10;99.90;;;;;;5205194;28;20037;-78
2022/03/18 13:25:16;;;;;;;1.13;1.10;;;19.30;99.90;;;;;;5174315;28;20029;-76
2022/03/18 13:27:49;;;;;;;1.95;1.85;;;19.50;99.90;;;;;;5153770;28;20034;-77
2022/03/18 13:33:16;;;;;;;4.85;3.45;;;17.80;99.90;;;;;;5205278;28;20038;-79
2022/03/18 13:35:53;;;;;;;1.42;1.35;;;16.50;99.90;;;;;;5175300;28;20040;-75
2022/03/18 13:38:29;;;;;;;0.82;0.82;;;15.40;99.90;;;;;;5163239;28;20046;-77
2022/03/18 13:41:03;;;;;;;6.10;2.28;;;15.50;99.90;;;;;;5180806;28;20049;-76
2022/03/18 13:43:47;;;;;;;1.27;1.27;;;15.20;99.90;;;;;;5180051;28;20241;-76
2022/03/18 13:46:24;;;;;;;3.50;3.30;;;15.50;99.90;;;;;;5193193;28;20033;-77
2022/03/18 13:49:18;;;;;;;1.55;1.45;;;15.90;99.90;;;;;;5188402;28;20033;-79
2022/03/18 13:52:04;;;;;;;1.75;1.65;;;16.60;99.90;;;;;;5191100;28;20048;-77
2022/03/18 13:54:53;;;;;;;1.13;1.10;;;16.80;99.90;;;;;;5193812;28;20040;-78
2022/03/18 13:57:25;;;;;;;2.95;2.72;;;17.20;99.90;;;;;;5205969;28;20368;-79
2022/03/18 13:59:59;;;;;;;1.88;1.77;;;16.30;99.90;;;;;;5206989;28;20047;-78
2022/03/18 14:02:36;;;;;;;2.25;2.15;;;16.80;99.90;;;;;;5179866;28;20040;-78
2022/03/18 14:05:10;;;;;;;1.48;1.38;;;17.10;99.90;;;;;;5182420;28;20053;-76